sensor_id;sensor_type;location;lat;lon;timestamp;P1;durP1;ratioP1;P2;durP2;ratioP2
52248;SDS011;38541;48.130;8.378;2023-08-06T00:00:51;1.90;;;1.70;;
52248;SDS011;38541;48.130;8.378;2023-08-06T00:03:18;1.40;;;1.30;;
52248;SDS011;38541;48.130;8.378;2023-08-06T00:05:44;1.65;;;1.52;;
52248;SDS011;38541;48.130;8.378;2023-08-06T00:08:11;1.90;;;1.50;;
52248;SDS011;38541;48.130;8.378;2023-08-06T00:10:39;1.33;;;1.23;;
52248;SDS011;38541;48.130;8.378;2023-08-06T00:13:06;1.67;;;1.55;;
52248;SDS011;38541;48.130;8.378;2023-08-06T00:15:33;2.40;;;2.00;;
52248;SDS011;38541;48.130;8.378;2023-08-06T00:17:59;1.40;;;1.30;;
52248;SDS011;38541;48.130;8.378;2023-08-06T00:20:26;2.40;;;1.63;;
52248;SDS011;38541;48.130;8.378;2023-08-06T00:22:52;1.98;;;1.48;;
52248;SDS011;38541;48.130;8.378;2023-08-06T00:25:19;1.67;;;1.50;;
52248;SDS011;38541;48.130;8.378;2023-08-06T00:27:45;1.45;;;1.35;;
52248;SDS011;38541;48.130;8.378;2023-08-06T00:30:12;1.85;;;1.60;;
52248;SDS011;38541;48.130;8.378;2023-08-06T00:32:38;1.83;;;1.40;;
52248;SDS011;38541;48.130;8.378;2023-08-06T00:35:05;1.42;;;1.10;;
52248;SDS011;38541;48.130;8.378;2023-08-06T00:37:33;1.58;;;1.48;;
52248;SDS011;38541;48.130;8.378;2023-08-06T00:39:59;1.20;;;1.10;;
52248;SDS011;38541;48.130;8.378;2023-08-06T00:42:26;1.48;;;1.30;;
52248;SDS011;38541;48.130;8.378;2023-08-06T00:44:52;1.48;;;1.38;;
52248;SDS011;38541;48.130;8.378;2023-08-06T00:47:19;1.35;;;1.25;;
52248;SDS011;38541;48.130;8.378;2023-08-06T00:49:45;1.20;;;1.00;;
52248;SDS011;38541;48.130;8.378;2023-08-06T00:52:12;1.63;;;1.17;;
52248;SDS011;38541;48.130;8.378;2023-08-06T00:54:40;1.15;;;1.05;;
52248;SDS011;38541;48.130;8.378;2023-08-06T00:57:07;0.90;;;0.80;;
52248;SDS011;38541;48.130;8.378;2023-08-06T00:59:35;1.38;;;1.10;;
52248;SDS011;38541;48.130;8.378;2023-08-06T01:02:03;1.00;;;0.90;;
52248;SDS011;38541;48.130;8.378;2023-08-06T01:04:29;1.77;;;1.00;;
52248;SDS011;38541;48.130;8.378;2023-08-06T01:07:02;1.10;;;1.10;;
52248;SDS011;38541;48.130;8.378;2023-08-06T01:10:00;1.02;;;0.80;;
52248;SDS011;38541;48.130;8.378;2023-08-06T01:12:59;0.90;;;0.70;;
52248;SDS011;38541;48.130;8.378;2023-08-06T01:15:32;2.13;;;0.95;;
52248;SDS011;38541;48.130;8.378;2023-08-06T01:18:04;1.35;;;1.02;;
52248;SDS011;38541;48.130;8.378;2023-08-06T01:20:31;0.93;;;0.90;;
52248;SDS011;38541;48.130;8.378;2023-08-06T01:22:57;1.10;;;1.05;;
52248;SDS011;38541;48.130;8.378;2023-08-06T01:25:26;1.45;;;1.20;;
52248;SDS011;38541;48.130;8.378;2023-08-06T01:28:03;1.13;;;1.10;;
52248;SDS011;38541;48.130;8.378;2023-08-06T01:30:37;1.00;;;0.90;;
52248;SDS011;38541;48.130;8.378;2023-08-06T01:33:08;1.30;;;1.20;;
52248;SDS011;38541;48.130;8.378;2023-08-06T01:35:40;1.50;;;1.35;;
52248;SDS011;38541;48.130;8.378;2023-08-06T01:38:07;1.83;;;1.00;;
52248;SDS011;38541;48.130;8.378;2023-08-06T01:40:33;0.95;;;0.90;;
52248;SDS011;38541;48.130;8.378;2023-08-06T01:43:01;1.50;;;1.40;;
52248;SDS011;38541;48.130;8.378;2023-08-06T01:45:28;2.30;;;1.33;;
52248;SDS011;38541;48.130;8.378;2023-08-06T01:47:54;1.23;;;1.10;;
52248;SDS011;38541;48.130;8.378;2023-08-06T01:50:22;1.52;;;1.23;;
52248;SDS011;38541;48.130;8.378;2023-08-06T01:52:50;2.72;;;1.45;;
52248;SDS011;38541;48.130;8.378;2023-08-06T01:55:18;1.38;;;1.10;;
52248;SDS011;38541;48.130;8.378;2023-08-06T01:57:44;1.55;;;1.00;;
52248;SDS011;38541;48.130;8.378;2023-08-06T02:00:11;2.30;;;1.20;;
52248;SDS011;38541;48.130;8.378;2023-08-06T02:02:38;1.42;;;1.23;;
52248;SDS011;38541;48.130;8.378;2023-08-06T02:05:05;2.65;;;1.10;;
52248;SDS011;38541;48.130;8.378;2023-08-06T02:07:32;1.20;;;1.10;;
52248;SDS011;38541;48.130;8.378;2023-08-06T02:09:58;1.13;;;1.02;;
52248;SDS011;38541;48.130;8.378;2023-08-06T02:12:25;1.38;;;1.10;;
52248;SDS011;38541;48.130;8.378;2023-08-06T02:14:51;1.55;;;1.00;;
52248;SDS011;38541;48.130;8.378;2023-08-06T02:17:18;2.95;;;1.40;;
52248;SDS011;38541;48.130;8.378;2023-08-06T02:19:44;1.48;;;1.00;;
52248;SDS011;38541;48.130;8.378;2023-08-06T02:22:11;3.40;;;1.60;;
52248;SDS011;38541;48.130;8.378;2023-08-06T02:24:37;2.42;;;1.08;;
52248;SDS011;38541;48.130;8.378;2023-08-06T02:27:04;2.03;;;1.10;;
52248;SDS011;38541;48.130;8.378;2023-08-06T02:29:30;2.08;;;1.30;;
52248;SDS011;38541;48.130;8.378;2023-08-06T02:31:57;1.60;;;0.90;;
52248;SDS011;38541;48.130;8.378;2023-08-06T02:34:25;1.13;;;1.02;;
52248;SDS011;38541;48.130;8.378;2023-08-06T02:36:52;1.38;;;1.05;;
52248;SDS011;38541;48.130;8.378;2023-08-06T02:39:18;2.25;;;1.02;;
52248;SDS011;38541;48.130;8.378;2023-08-06T02:41:45;1.33;;;0.80;;
52248;SDS011;38541;48.130;8.378;2023-08-06T02:44:11;1.20;;;0.90;;
52248;SDS011;38541;48.130;8.378;2023-08-06T02:46:38;1.42;;;0.88;;
52248;SDS011;38541;48.130;8.378;2023-08-06T02:49:04;1.63;;;1.13;;
52248;SDS011;38541;48.130;8.378;2023-08-06T02:51:32;2.67;;;1.10;;
52248;SDS011;38541;48.130;8.378;2023-08-06T02:53:59;1.30;;;0.90;;
52248;SDS011;38541;48.130;8.378;2023-08-06T02:56:25;3.60;;;0.80;;
52248;SDS011;38541;48.130;8.378;2023-08-06T02:59:15;0.98;;;0.90;;
52248;SDS011;38541;48.130;8.378;2023-08-06T03:01:51;1.55;;;0.93;;
52248;SDS011;38541;48.130;8.378;2023-08-06T03:04:33;2.88;;;0.73;;
52248;SDS011;38541;48.130;8.378;2023-08-06T03:06:59;2.40;;;1.02;;
52248;SDS011;38541;48.130;8.378;2023-08-06T03:09:34;1.00;;;0.80;;
52248;SDS011;38541;48.130;8.378;2023-08-06T03:12:01;1.10;;;0.75;;
52248;SDS011;38541;48.130;8.378;2023-08-06T03:14:28;0.70;;;0.63;;
52248;SDS011;38541;48.130;8.378;2023-08-06T03:16:54;0.82;;;0.75;;
52248;SDS011;38541;48.130;8.378;2023-08-06T03:19:21;0.70;;;0.60;;
52248;SDS011;38541;48.130;8.378;2023-08-06T03:21:47;0.50;;;0.45;;
52248;SDS011;38541;48.130;8.378;2023-08-06T03:24:15;0.50;;;0.50;;
52248;SDS011;38541;48.130;8.378;2023-08-06T03:26:43;0.50;;;0.50;;
52248;SDS011;38541;48.130;8.378;2023-08-06T03:29:10;0.65;;;0.50;;
52248;SDS011;38541;48.130;8.378;2023-08-06T03:31:37;0.80;;;0.50;;
52248;SDS011;38541;48.130;8.378;2023-08-06T03:34:04;0.40;;;0.40;;
52248;SDS011;38541;48.130;8.378;2023-08-06T03:36:31;0.65;;;0.40;;
52248;SDS011;38541;48.130;8.378;2023-08-06T03:39:00;0.82;;;0.63;;
52248;SDS011;38541;48.130;8.378;2023-08-06T03:41:29;0.80;;;0.50;;
52248;SDS011;38541;48.130;8.378;2023-08-06T03:43:56;0.90;;;0.77;;
52248;SDS011;38541;48.130;8.378;2023-08-06T03:46:25;1.35;;;0.68;;
52248;SDS011;38541;48.130;8.378;2023-08-06T03:48:52;0.50;;;0.50;;
52248;SDS011;38541;48.130;8.378;2023-08-06T03:51:19;0.52;;;0.50;;
52248;SDS011;38541;48.130;8.378;2023-08-06T03:53:47;1.52;;;0.52;;
52248;SDS011;38541;48.130;8.378;2023-08-06T03:56:14;1.10;;;0.40;;
52248;SDS011;38541;48.130;8.378;2023-08-06T03:58:40;1.42;;;0.60;;
52248;SDS011;38541;48.130;8.378;2023-08-06T04:01:07;1.55;;;0.60;;
52248;SDS011;38541;48.130;8.378;2023-08-06T04:03:40;1.02;;;0.50;;
52248;SDS011;38541;48.130;8.378;2023-08-06T04:06:07;0.60;;;0.60;;
52248;SDS011;38541;48.130;8.378;2023-08-06T04:08:35;1.10;;;0.73;;
52248;SDS011;38541;48.130;8.378;2023-08-06T04:11:02;2.33;;;0.70;;
52248;SDS011;38541;48.130;8.378;2023-08-06T04:13:28;0.90;;;0.68;;
52248;SDS011;38541;48.130;8.378;2023-08-06T04:16:00;0.55;;;0.55;;
52248;SDS011;38541;48.130;8.378;2023-08-06T04:18:31;0.45;;;0.35;;
52248;SDS011;38541;48.130;8.378;2023-08-06T04:20:57;0.60;;;0.50;;
52248;SDS011;38541;48.130;8.378;2023-08-06T04:23:24;2.20;;;0.50;;
52248;SDS011;38541;48.130;8.378;2023-08-06T04:25:56;0.47;;;0.47;;
52248;SDS011;38541;48.130;8.378;2023-08-06T04:28:25;0.50;;;0.50;;
52248;SDS011;38541;48.130;8.378;2023-08-06T04:30:52;0.80;;;0.65;;
52248;SDS011;38541;48.130;8.378;2023-08-06T04:33:20;0.70;;;0.60;;
52248;SDS011;38541;48.130;8.378;2023-08-06T04:35:47;0.77;;;0.77;;
52248;SDS011;38541;48.130;8.378;2023-08-06T04:38:13;0.93;;;0.60;;
52248;SDS011;38541;48.130;8.378;2023-08-06T04:40:40;0.40;;;0.40;;
52248;SDS011;38541;48.130;8.378;2023-08-06T04:43:08;0.43;;;0.43;;
52248;SDS011;38541;48.130;8.378;2023-08-06T04:45:34;0.50;;;0.50;;
52248;SDS011;38541;48.130;8.378;2023-08-06T04:48:01;1.45;;;0.60;;
52248;SDS011;38541;48.130;8.378;2023-08-06T04:50:28;0.77;;;0.50;;
52248;SDS011;38541;48.130;8.378;2023-08-06T04:52:54;0.70;;;0.52;;
52248;SDS011;38541;48.130;8.378;2023-08-06T04:55:21;0.40;;;0.40;;
52248;SDS011;38541;48.130;8.378;2023-08-06T04:57:47;0.60;;;0.60;;
52248;SDS011;38541;48.130;8.378;2023-08-06T05:00:14;0.80;;;0.47;;
52248;SDS011;38541;48.130;8.378;2023-08-06T05:02:40;0.43;;;0.43;;
52248;SDS011;38541;48.130;8.378;2023-08-06T05:05:07;0.40;;;0.40;;
52248;SDS011;38541;48.130;8.378;2023-08-06T05:07:34;1.58;;;0.70;;
52248;SDS011;38541;48.130;8.378;2023-08-06T05:10:00;0.45;;;0.45;;
52248;SDS011;38541;48.130;8.378;2023-08-06T05:12:27;0.50;;;0.50;;
52248;SDS011;38541;48.130;8.378;2023-08-06T05:14:53;0.50;;;0.50;;
52248;SDS011;38541;48.130;8.378;2023-08-06T05:17:20;0.50;;;0.50;;
52248;SDS011;38541;48.130;8.378;2023-08-06T05:19:47;0.65;;;0.50;;
52248;SDS011;38541;48.130;8.378;2023-08-06T05:22:13;0.30;;;0.30;;
52248;SDS011;38541;48.130;8.378;2023-08-06T05:24:39;0.47;;;0.47;;
52248;SDS011;38541;48.130;8.378;2023-08-06T05:27:06;0.63;;;0.40;;
52248;SDS011;38541;48.130;8.378;2023-08-06T05:29:32;0.40;;;0.40;;
52248;SDS011;38541;48.130;8.378;2023-08-06T05:31:59;0.40;;;0.40;;
52248;SDS011;38541;48.130;8.378;2023-08-06T05:34:25;2.53;;;0.40;;
52248;SDS011;38541;48.130;8.378;2023-08-06T05:36:52;0.32;;;0.32;;
52248;SDS011;38541;48.130;8.378;2023-08-06T05:39:19;0.40;;;0.40;;
52248;SDS011;38541;48.130;8.378;2023-08-06T05:41:45;0.30;;;0.30;;
52248;SDS011;38541;48.130;8.378;2023-08-06T05:44:11;0.45;;;0.40;;
52248;SDS011;38541;48.130;8.378;2023-08-06T05:46:38;0.45;;;0.40;;
52248;SDS011;38541;48.130;8.378;2023-08-06T05:49:05;0.30;;;0.30;;
52248;SDS011;38541;48.130;8.378;2023-08-06T05:51:31;0.30;;;0.30;;
52248;SDS011;38541;48.130;8.378;2023-08-06T05:53:57;0.20;;;0.20;;
52248;SDS011;38541;48.130;8.378;2023-08-06T05:56:24;0.30;;;0.30;;
52248;SDS011;38541;48.130;8.378;2023-08-06T05:58:50;0.20;;;0.20;;
52248;SDS011;38541;48.130;8.378;2023-08-06T06:01:19;0.20;;;0.20;;
52248;SDS011;38541;48.130;8.378;2023-08-06T06:03:45;0.35;;;0.25;;
52248;SDS011;38541;48.130;8.378;2023-08-06T06:06:12;0.25;;;0.25;;
52248;SDS011;38541;48.130;8.378;2023-08-06T06:08:42;0.30;;;0.30;;
52248;SDS011;38541;48.130;8.378;2023-08-06T06:11:08;0.25;;;0.25;;
52248;SDS011;38541;48.130;8.378;2023-08-06T06:13:35;0.25;;;0.25;;
52248;SDS011;38541;48.130;8.378;2023-08-06T06:16:01;0.20;;;0.20;;
52248;SDS011;38541;48.130;8.378;2023-08-06T06:18:28;0.30;;;0.30;;
52248;SDS011;38541;48.130;8.378;2023-08-06T06:20:54;0.20;;;0.20;;
52248;SDS011;38541;48.130;8.378;2023-08-06T06:23:21;0.30;;;0.30;;
52248;SDS011;38541;48.130;8.378;2023-08-06T06:25:50;0.55;;;0.55;;
52248;SDS011;38541;48.130;8.378;2023-08-06T06:28:19;0.30;;;0.30;;
52248;SDS011;38541;48.130;8.378;2023-08-06T06:30:46;0.20;;;0.20;;
52248;SDS011;38541;48.130;8.378;2023-08-06T06:33:12;0.30;;;0.30;;
52248;SDS011;38541;48.130;8.378;2023-08-06T06:35:39;0.30;;;0.30;;
52248;SDS011;38541;48.130;8.378;2023-08-06T06:38:05;0.30;;;0.30;;
52248;SDS011;38541;48.130;8.378;2023-08-06T06:40:32;0.25;;;0.25;;
52248;SDS011;38541;48.130;8.378;2023-08-06T06:42:59;1.17;;;0.47;;
52248;SDS011;38541;48.130;8.378;2023-08-06T06:45:25;0.30;;;0.30;;
52248;SDS011;38541;48.130;8.378;2023-08-06T06:47:52;0.70;;;0.43;;
52248;SDS011;38541;48.130;8.378;2023-08-06T06:50:18;0.40;;;0.40;;
52248;SDS011;38541;48.130;8.378;2023-08-06T06:52:45;0.30;;;0.30;;
52248;SDS011;38541;48.130;8.378;2023-08-06T06:55:11;0.30;;;0.30;;
52248;SDS011;38541;48.130;8.378;2023-08-06T06:57:38;0.30;;;0.30;;
52248;SDS011;38541;48.130;8.378;2023-08-06T07:00:04;0.40;;;0.40;;
52248;SDS011;38541;48.130;8.378;2023-08-06T07:02:32;0.25;;;0.25;;
52248;SDS011;38541;48.130;8.378;2023-08-06T07:04:58;0.70;;;0.70;;
52248;SDS011;38541;48.130;8.378;2023-08-06T07:07:25;0.63;;;0.50;;
52248;SDS011;38541;48.130;8.378;2023-08-06T07:09:51;0.30;;;0.30;;
52248;SDS011;38541;48.130;8.378;2023-08-06T07:12:18;0.30;;;0.30;;
52248;SDS011;38541;48.130;8.378;2023-08-06T07:14:44;0.40;;;0.40;;
52248;SDS011;38541;48.130;8.378;2023-08-06T07:17:11;0.40;;;0.40;;
52248;SDS011;38541;48.130;8.378;2023-08-06T07:19:37;0.55;;;0.30;;
52248;SDS011;38541;48.130;8.378;2023-08-06T07:22:04;0.30;;;0.30;;
52248;SDS011;38541;48.130;8.378;2023-08-06T07:24:30;0.40;;;0.40;;
52248;SDS011;38541;48.130;8.378;2023-08-06T07:26:57;0.22;;;0.22;;
52248;SDS011;38541;48.130;8.378;2023-08-06T07:29:23;0.40;;;0.40;;
52248;SDS011;38541;48.130;8.378;2023-08-06T07:31:50;0.30;;;0.30;;
52248;SDS011;38541;48.130;8.378;2023-08-06T07:34:17;0.25;;;0.25;;
52248;SDS011;38541;48.130;8.378;2023-08-06T07:36:44;0.30;;;0.30;;
52248;SDS011;38541;48.130;8.378;2023-08-06T07:39:11;0.22;;;0.22;;
52248;SDS011;38541;48.130;8.378;2023-08-06T07:41:38;0.75;;;0.30;;
52248;SDS011;38541;48.130;8.378;2023-08-06T07:44:05;0.30;;;0.30;;
52248;SDS011;38541;48.130;8.378;2023-08-06T07:46:31;0.30;;;0.30;;
52248;SDS011;38541;48.130;8.378;2023-08-06T07:48:58;0.38;;;0.30;;
52248;SDS011;38541;48.130;8.378;2023-08-06T07:51:24;0.88;;;0.57;;
52248;SDS011;38541;48.130;8.378;2023-08-06T07:53:51;1.77;;;0.40;;
52248;SDS011;38541;48.130;8.378;2023-08-06T07:56:17;0.30;;;0.30;;
52248;SDS011;38541;48.130;8.378;2023-08-06T07:58:44;0.30;;;0.30;;
52248;SDS011;38541;48.130;8.378;2023-08-06T08:01:10;0.22;;;0.22;;
52248;SDS011;38541;48.130;8.378;2023-08-06T08:03:37;0.30;;;0.30;;
52248;SDS011;38541;48.130;8.378;2023-08-06T08:06:03;0.70;;;0.70;;
52248;SDS011;38541;48.130;8.378;2023-08-06T08:08:30;0.38;;;0.38;;
52248;SDS011;38541;48.130;8.378;2023-08-06T08:10:56;0.40;;;0.40;;
52248;SDS011;38541;48.130;8.378;2023-08-06T08:13:25;0.20;;;0.20;;
52248;SDS011;38541;48.130;8.378;2023-08-06T08:15:57;0.30;;;0.30;;
52248;SDS011;38541;48.130;8.378;2023-08-06T08:18:25;0.30;;;0.30;;
52248;SDS011;38541;48.130;8.378;2023-08-06T08:20:51;0.20;;;0.20;;
52248;SDS011;38541;48.130;8.378;2023-08-06T08:23:18;0.20;;;0.20;;
52248;SDS011;38541;48.130;8.378;2023-08-06T08:25:44;0.20;;;0.20;;
52248;SDS011;38541;48.130;8.378;2023-08-06T08:28:11;0.20;;;0.20;;
52248;SDS011;38541;48.130;8.378;2023-08-06T08:30:37;0.40;;;0.40;;
52248;SDS011;38541;48.130;8.378;2023-08-06T08:33:03;0.28;;;0.28;;
52248;SDS011;38541;48.130;8.378;2023-08-06T08:35:30;0.55;;;0.55;;
52248;SDS011;38541;48.130;8.378;2023-08-06T08:37:56;0.43;;;0.43;;
52248;SDS011;38541;48.130;8.378;2023-08-06T08:40:23;0.40;;;0.40;;
52248;SDS011;38541;48.130;8.378;2023-08-06T08:42:58;0.40;;;0.40;;
52248;SDS011;38541;48.130;8.378;2023-08-06T08:45:26;0.57;;;0.57;;
52248;SDS011;38541;48.130;8.378;2023-08-06T08:47:55;0.55;;;0.50;;
52248;SDS011;38541;48.130;8.378;2023-08-06T08:50:22;0.45;;;0.45;;
52248;SDS011;38541;48.130;8.378;2023-08-06T08:52:48;1.98;;;0.90;;
52248;SDS011;38541;48.130;8.378;2023-08-06T08:55:16;0.50;;;0.50;;
52248;SDS011;38541;48.130;8.378;2023-08-06T08:57:44;0.40;;;0.40;;
52248;SDS011;38541;48.130;8.378;2023-08-06T09:00:10;0.30;;;0.30;;
52248;SDS011;38541;48.130;8.378;2023-08-06T09:02:37;1.35;;;0.50;;
52248;SDS011;38541;48.130;8.378;2023-08-06T09:05:05;1.25;;;0.90;;
52248;SDS011;38541;48.130;8.378;2023-08-06T09:07:38;1.33;;;1.00;;
52248;SDS011;38541;48.130;8.378;2023-08-06T09:10:12;2.15;;;1.70;;
52248;SDS011;38541;48.130;8.378;2023-08-06T09:12:41;3.20;;;2.25;;
52248;SDS011;38541;48.130;8.378;2023-08-06T09:15:07;1.17;;;0.88;;
52248;SDS011;38541;48.130;8.378;2023-08-06T09:17:34;4.32;;;2.03;;
52248;SDS011;38541;48.130;8.378;2023-08-06T09:20:09;1.40;;;0.98;;
52248;SDS011;38541;48.130;8.378;2023-08-06T09:22:37;0.47;;;0.40;;
52248;SDS011;38541;48.130;8.378;2023-08-06T09:25:04;0.60;;;0.60;;
52248;SDS011;38541;48.130;8.378;2023-08-06T09:27:36;2.03;;;1.20;;
52248;SDS011;38541;48.130;8.378;2023-08-06T09:30:03;1.35;;;0.70;;
52248;SDS011;38541;48.130;8.378;2023-08-06T09:32:46;2.58;;;0.70;;
52248;SDS011;38541;48.130;8.378;2023-08-06T09:35:17;0.70;;;0.70;;
52248;SDS011;38541;48.130;8.378;2023-08-06T09:37:45;1.35;;;1.10;;
52248;SDS011;38541;48.130;8.378;2023-08-06T09:40:24;1.05;;;0.60;;
52248;SDS011;38541;48.130;8.378;2023-08-06T09:42:52;0.90;;;0.40;;
52248;SDS011;38541;48.130;8.378;2023-08-06T09:45:19;0.73;;;0.73;;
52248;SDS011;38541;48.130;8.378;2023-08-06T09:47:45;1.27;;;0.60;;
52248;SDS011;38541;48.130;8.378;2023-08-06T09:50:16;1.52;;;0.93;;
52248;SDS011;38541;48.130;8.378;2023-08-06T09:52:44;0.50;;;0.50;;
52248;SDS011;38541;48.130;8.378;2023-08-06T09:55:12;0.60;;;0.40;;
52248;SDS011;38541;48.130;8.378;2023-08-06T09:57:40;0.40;;;0.40;;
52248;SDS011;38541;48.130;8.378;2023-08-06T10:00:10;0.40;;;0.40;;
52248;SDS011;38541;48.130;8.378;2023-08-06T10:02:40;0.30;;;0.30;;
52248;SDS011;38541;48.130;8.378;2023-08-06T10:05:07;0.82;;;0.75;;
52248;SDS011;38541;48.130;8.378;2023-08-06T10:07:34;0.82;;;0.60;;
52248;SDS011;38541;48.130;8.378;2023-08-06T10:10:02;2.20;;;0.80;;
52248;SDS011;38541;48.130;8.378;2023-08-06T10:12:29;1.60;;;0.82;;
52248;SDS011;38541;48.130;8.378;2023-08-06T10:15:01;0.73;;;0.73;;
52248;SDS011;38541;48.130;8.378;2023-08-06T10:17:30;1.60;;;0.95;;
52248;SDS011;38541;48.130;8.378;2023-08-06T10:20:14;0.75;;;0.73;;
52248;SDS011;38541;48.130;8.378;2023-08-06T10:22:44;1.13;;;0.82;;
52248;SDS011;38541;48.130;8.378;2023-08-06T10:25:15;2.55;;;1.10;;
52248;SDS011;38541;48.130;8.378;2023-08-06T10:30:25;1.17;;;0.80;;
52248;SDS011;38541;48.130;8.378;2023-08-06T10:32:59;0.45;;;0.45;;
52248;SDS011;38541;48.130;8.378;2023-08-06T10:35:31;0.45;;;0.40;;
52248;SDS011;38541;48.130;8.378;2023-08-06T10:38:14;0.75;;;0.60;;
52248;SDS011;38541;48.130;8.378;2023-08-06T10:40:48;0.40;;;0.40;;
52248;SDS011;38541;48.130;8.378;2023-08-06T10:45:51;2.60;;;1.67;;
52248;SDS011;38541;48.130;8.378;2023-08-06T10:48:31;1.60;;;0.70;;
52248;SDS011;38541;48.130;8.378;2023-08-06T10:51:01;0.50;;;0.50;;
52248;SDS011;38541;48.130;8.378;2023-08-06T10:53:28;1.08;;;0.68;;
52248;SDS011;38541;48.130;8.378;2023-08-06T10:55:59;1.00;;;0.80;;
52248;SDS011;38541;48.130;8.378;2023-08-06T10:58:31;0.60;;;0.60;;
52248;SDS011;38541;48.130;8.378;2023-08-06T11:01:00;0.70;;;0.70;;
52248;SDS011;38541;48.130;8.378;2023-08-06T11:03:27;0.50;;;0.50;;
52248;SDS011;38541;48.130;8.378;2023-08-06T11:05:54;1.20;;;0.65;;
52248;SDS011;38541;48.130;8.378;2023-08-06T11:08:25;0.70;;;0.60;;
52248;SDS011;38541;48.130;8.378;2023-08-06T11:10:52;2.58;;;1.05;;
52248;SDS011;38541;48.130;8.378;2023-08-06T11:13:28;1.50;;;0.65;;
52248;SDS011;38541;48.130;8.378;2023-08-06T11:15:55;1.40;;;1.10;;
52248;SDS011;38541;48.130;8.378;2023-08-06T11:18:22;0.68;;;0.60;;
52248;SDS011;38541;48.130;8.378;2023-08-06T11:20:49;1.50;;;0.85;;
52248;SDS011;38541;48.130;8.378;2023-08-06T11:23:15;0.73;;;0.65;;
52248;SDS011;38541;48.130;8.378;2023-08-06T11:25:45;1.27;;;0.50;;
52248;SDS011;38541;48.130;8.378;2023-08-06T11:28:12;0.40;;;0.40;;
52248;SDS011;38541;48.130;8.378;2023-08-06T11:30:39;0.50;;;0.50;;
52248;SDS011;38541;48.130;8.378;2023-08-06T11:33:06;0.65;;;0.60;;
52248;SDS011;38541;48.130;8.378;2023-08-06T11:35:36;0.55;;;0.55;;
52248;SDS011;38541;48.130;8.378;2023-08-06T11:38:04;1.45;;;0.50;;
52248;SDS011;38541;48.130;8.378;2023-08-06T11:40:31;0.47;;;0.47;;
52248;SDS011;38541;48.130;8.378;2023-08-06T11:42:58;0.75;;;0.75;;
52248;SDS011;38541;48.130;8.378;2023-08-06T11:45:25;0.47;;;0.47;;
52248;SDS011;38541;48.130;8.378;2023-08-06T11:47:51;0.40;;;0.40;;
52248;SDS011;38541;48.130;8.378;2023-08-06T11:50:23;0.47;;;0.47;;
52248;SDS011;38541;48.130;8.378;2023-08-06T11:52:52;1.30;;;0.45;;
52248;SDS011;38541;48.130;8.378;2023-08-06T11:55:22;0.32;;;0.32;;
52248;SDS011;38541;48.130;8.378;2023-08-06T11:57:50;0.80;;;0.55;;
52248;SDS011;38541;48.130;8.378;2023-08-06T12:00:17;0.40;;;0.40;;
52248;SDS011;38541;48.130;8.378;2023-08-06T12:02:46;1.30;;;0.40;;
52248;SDS011;38541;48.130;8.378;2023-08-06T12:05:14;0.32;;;0.32;;
52248;SDS011;38541;48.130;8.378;2023-08-06T12:07:42;0.40;;;0.40;;
52248;SDS011;38541;48.130;8.378;2023-08-06T12:10:10;0.40;;;0.40;;
52248;SDS011;38541;48.130;8.378;2023-08-06T12:12:38;0.30;;;0.30;;
52248;SDS011;38541;48.130;8.378;2023-08-06T12:15:05;0.40;;;0.40;;
52248;SDS011;38541;48.130;8.378;2023-08-06T12:17:33;0.40;;;0.40;;
52248;SDS011;38541;48.130;8.378;2023-08-06T12:20:00;0.32;;;0.32;;
52248;SDS011;38541;48.130;8.378;2023-08-06T12:22:27;0.40;;;0.40;;
52248;SDS011;38541;48.130;8.378;2023-08-06T12:24:53;0.40;;;0.40;;
52248;SDS011;38541;48.130;8.378;2023-08-06T12:27:20;0.40;;;0.40;;
52248;SDS011;38541;48.130;8.378;2023-08-06T12:29:49;0.40;;;0.40;;
52248;SDS011;38541;48.130;8.378;2023-08-06T12:32:15;0.70;;;0.70;;
52248;SDS011;38541;48.130;8.378;2023-08-06T12:34:42;0.50;;;0.50;;
52248;SDS011;38541;48.130;8.378;2023-08-06T12:37:18;0.40;;;0.40;;
52248;SDS011;38541;48.130;8.378;2023-08-06T12:39:45;0.30;;;0.30;;
52248;SDS011;38541;48.130;8.378;2023-08-06T12:42:12;0.52;;;0.50;;
52248;SDS011;38541;48.130;8.378;2023-08-06T12:44:39;0.40;;;0.40;;
52248;SDS011;38541;48.130;8.378;2023-08-06T12:47:07;0.30;;;0.30;;
52248;SDS011;38541;48.130;8.378;2023-08-06T12:49:34;0.73;;;0.73;;
52248;SDS011;38541;48.130;8.378;2023-08-06T12:52:00;0.30;;;0.30;;
52248;SDS011;38541;48.130;8.378;2023-08-06T12:54:27;0.40;;;0.40;;
52248;SDS011;38541;48.130;8.378;2023-08-06T12:56:54;0.40;;;0.40;;
52248;SDS011;38541;48.130;8.378;2023-08-06T12:59:21;0.30;;;0.30;;
52248;SDS011;38541;48.130;8.378;2023-08-06T13:01:47;0.40;;;0.40;;
52248;SDS011;38541;48.130;8.378;2023-08-06T13:04:14;0.32;;;0.32;;
52248;SDS011;38541;48.130;8.378;2023-08-06T13:06:48;0.40;;;0.40;;
52248;SDS011;38541;48.130;8.378;2023-08-06T13:09:15;0.40;;;0.40;;
52248;SDS011;38541;48.130;8.378;2023-08-06T13:11:42;0.40;;;0.40;;
52248;SDS011;38541;48.130;8.378;2023-08-06T13:14:13;0.35;;;0.35;;
52248;SDS011;38541;48.130;8.378;2023-08-06T13:16:41;0.20;;;0.20;;
52248;SDS011;38541;48.130;8.378;2023-08-06T13:19:09;0.57;;;0.57;;
52248;SDS011;38541;48.130;8.378;2023-08-06T13:24:16;0.40;;;0.40;;
52248;SDS011;38541;48.130;8.378;2023-08-06T13:26:42;0.50;;;0.50;;
52248;SDS011;38541;48.130;8.378;2023-08-06T13:29:09;0.50;;;0.40;;
52248;SDS011;38541;48.130;8.378;2023-08-06T13:31:36;0.40;;;0.40;;
52248;SDS011;38541;48.130;8.378;2023-08-06T13:34:03;0.47;;;0.47;;
52248;SDS011;38541;48.130;8.378;2023-08-06T13:36:30;0.40;;;0.40;;
52248;SDS011;38541;48.130;8.378;2023-08-06T13:38:57;0.50;;;0.50;;
52248;SDS011;38541;48.130;8.378;2023-08-06T13:41:23;0.93;;;0.63;;
52248;SDS011;38541;48.130;8.378;2023-08-06T13:43:50;0.60;;;0.60;;
52248;SDS011;38541;48.130;8.378;2023-08-06T13:46:17;0.40;;;0.40;;
52248;SDS011;38541;48.130;8.378;2023-08-06T13:48:46;0.50;;;0.50;;
52248;SDS011;38541;48.130;8.378;2023-08-06T13:51:14;0.55;;;0.55;;
52248;SDS011;38541;48.130;8.378;2023-08-06T13:53:41;0.98;;;0.50;;
52248;SDS011;38541;48.130;8.378;2023-08-06T13:56:11;0.40;;;0.40;;
52248;SDS011;38541;48.130;8.378;2023-08-06T13:58:37;0.68;;;0.68;;
52248;SDS011;38541;48.130;8.378;2023-08-06T14:01:05;0.80;;;0.80;;
52248;SDS011;38541;48.130;8.378;2023-08-06T14:03:31;0.70;;;0.70;;
52248;SDS011;38541;48.130;8.378;2023-08-06T14:05:58;0.80;;;0.77;;
52248;SDS011;38541;48.130;8.378;2023-08-06T14:08:24;1.10;;;0.90;;
52248;SDS011;38541;48.130;8.378;2023-08-06T14:10:51;0.60;;;0.60;;
52248;SDS011;38541;48.130;8.378;2023-08-06T14:13:18;0.60;;;0.60;;
52248;SDS011;38541;48.130;8.378;2023-08-06T14:15:45;1.00;;;0.90;;
52248;SDS011;38541;48.130;8.378;2023-08-06T14:18:15;2.45;;;1.23;;
52248;SDS011;38541;48.130;8.378;2023-08-06T14:20:41;1.17;;;1.08;;
52248;SDS011;38541;48.130;8.378;2023-08-06T14:23:09;0.88;;;0.88;;
52248;SDS011;38541;48.130;8.378;2023-08-06T14:25:36;1.55;;;0.93;;
52248;SDS011;38541;48.130;8.378;2023-08-06T14:28:04;1.02;;;0.68;;
52248;SDS011;38541;48.130;8.378;2023-08-06T14:30:32;0.80;;;0.70;;
52248;SDS011;38541;48.130;8.378;2023-08-06T14:32:59;0.73;;;0.73;;
52248;SDS011;38541;48.130;8.378;2023-08-06T14:35:49;1.02;;;0.95;;
52248;SDS011;38541;48.130;8.378;2023-08-06T14:38:16;0.90;;;0.88;;
52248;SDS011;38541;48.130;8.378;2023-08-06T14:40:43;1.25;;;0.80;;
52248;SDS011;38541;48.130;8.378;2023-08-06T14:43:10;0.98;;;0.77;;
52248;SDS011;38541;48.130;8.378;2023-08-06T14:45:40;1.27;;;1.00;;
52248;SDS011;38541;48.130;8.378;2023-08-06T14:48:06;0.70;;;0.70;;
52248;SDS011;38541;48.130;8.378;2023-08-06T14:50:33;0.82;;;0.82;;
52248;SDS011;38541;48.130;8.378;2023-08-06T14:52:59;1.48;;;0.63;;
52248;SDS011;38541;48.130;8.378;2023-08-06T14:55:30;1.17;;;0.70;;
52248;SDS011;38541;48.130;8.378;2023-08-06T14:57:58;1.23;;;0.80;;
52248;SDS011;38541;48.130;8.378;2023-08-06T15:00:25;0.80;;;0.80;;